createdAt,value
2018-01-08T00:01:51.162Z,95.22
2018-01-08T00:04:21.990Z,95.59
2018-01-08T00:06:52.809Z,95.89
2018-01-08T00:09:30.688Z,96.60
2018-01-08T00:12:01.420Z,96.60
2018-01-08T00:14:32.193Z,96.60
2018-01-08T00:17:03.014Z,96.51
2018-01-08T00:19:33.771Z,96.36
2018-01-08T00:22:04.537Z,96.26
2018-01-08T00:24:35.437Z,96.29
2018-01-08T00:27:06.208Z,96.11
2018-01-08T00:29:36.968Z,95.99
2018-01-08T00:32:07.716Z,95.84
2018-01-08T00:34:38.492Z,95.74
2018-01-08T00:37:09.232Z,95.83
2018-01-08T00:39:39.997Z,96.13
2018-01-08T00:42:10.744Z,96.07
2018-01-08T00:44:41.516Z,96.22
2018-01-08T00:47:12.280Z,96.49
2018-01-08T00:49:44.140Z,96.60
2018-01-08T00:52:14.880Z,96.59
2018-01-08T00:54:45.672Z,96.67
2018-01-08T00:57:16.502Z,96.62
2018-01-08T00:59:47.294Z,96.80
2018-01-08T01:02:18.059Z,97.05
2018-01-08T01:04:48.864Z,97.08
2018-01-08T01:07:19.604Z,97.03
2018-01-08T01:09:50.373Z,96.89
2018-01-08T01:12:21.116Z,96.85
2018-01-08T01:14:51.872Z,96.97
2018-01-08T01:17:24.672Z,97.03
2018-01-08T01:19:55.524Z,97.17
2018-01-08T01:22:26.282Z,97.26
2018-01-08T01:24:57.125Z,97.42
2018-01-08T01:27:27.972Z,97.42
2018-01-08T01:29:58.769Z,97.46
2018-01-08T01:32:29.513Z,97.64
2018-01-08T01:35:00.300Z,97.58
2018-01-08T01:37:31.048Z,97.48
2018-01-08T01:40:01.837Z,97.55
2018-01-08T01:42:32.620Z,97.90
2018-01-08T01:45:03.393Z,98.07
2018-01-08T01:47:34.170Z,98.13
2018-01-08T01:50:04.929Z,98.14
2018-01-08T01:52:35.679Z,98.17
2018-01-08T01:55:06.467Z,98.11
2018-01-08T01:57:37.273Z,98.09
2018-01-08T02:00:08.042Z,98.05
2018-01-08T02:02:38.792Z,98.05
2018-01-08T02:05:09.535Z,98.03
2018-01-08T02:07:40.272Z,98.03
2018-01-08T02:10:11.033Z,98.02
2018-01-08T02:12:41.792Z,98.03
2018-01-08T02:15:12.574Z,98.16
2018-01-08T02:17:43.330Z,98.14
2018-01-08T02:20:14.084Z,98.20
2018-01-08T02:22:44.840Z,98.07
2018-01-08T02:25:15.620Z,97.84
2018-01-08T02:27:46.374Z,97.56
2018-01-08T02:30:17.128Z,97.27
2018-01-08T02:32:47.876Z,97.44
2018-01-08T02:35:18.644Z,97.56
2018-01-08T02:37:49.413Z,97.42
2018-01-08T02:40:20.182Z,97.54
2018-01-08T02:42:50.951Z,97.37
2018-01-08T02:45:21.733Z,97.28
2018-01-08T02:47:52.497Z,97.27
2018-01-08T02:50:23.284Z,97.30
2018-01-08T02:52:54.085Z,97.33
2018-01-08T02:55:24.870Z,97.43
2018-01-08T02:57:55.618Z,97.25
2018-01-08T03:00:27.465Z,97.28
2018-01-08T03:02:58.216Z,97.06
2018-01-08T03:05:29.011Z,96.99
2018-01-08T03:07:59.772Z,97.14
2018-01-08T03:10:30.536Z,97.31
2018-01-08T03:13:01.300Z,97.49
2018-01-08T03:15:35.316Z,97.48
2018-01-08T03:18:06.071Z,97.47
2018-01-08T03:20:36.863Z,97.55
2018-01-08T03:23:07.629Z,97.21
2018-01-08T03:25:38.396Z,97.26
2018-01-08T03:28:09.142Z,97.27
2018-01-08T03:30:39.925Z,97.08
2018-01-08T03:33:10.701Z,97.13
2018-01-08T03:35:41.481Z,97.04
2018-01-08T03:38:12.245Z,97.14
2018-01-08T03:40:43.008Z,97.31
2018-01-08T03:43:13.764Z,97.39
2018-01-08T03:45:44.572Z,97.41
2018-01-08T03:48:15.360Z,97.43
2018-01-08T03:50:46.117Z,97.64
2018-01-08T03:53:16.872Z,97.83
2018-01-08T03:55:47.637Z,98.01
2018-01-08T03:58:19.441Z,98.10
2018-01-08T04:00:50.221Z,98.29
2018-01-08T04:03:20.980Z,98.52
2018-01-08T04:05:51.741Z,98.54
2018-01-08T04:08:22.499Z,98.51
2018-01-08T04:10:53.297Z,98.50
2018-01-08T04:13:24.044Z,98.47
2018-01-08T04:15:54.821Z,98.51
2018-01-08T04:18:25.566Z,98.62
2018-01-08T04:20:56.344Z,98.81
2018-01-08T04:23:27.096Z,98.77
2018-01-08T04:25:57.868Z,98.85
2018-01-08T04:28:28.610Z,98.90
2018-01-08T04:30:59.419Z,99.03
2018-01-08T04:33:30.226Z,99.13
2018-01-08T04:36:00.992Z,99.12
2018-01-08T04:38:31.748Z,99.08
2018-01-08T04:41:02.522Z,98.93
2018-01-08T04:43:33.277Z,98.75
2018-01-08T04:46:04.049Z,98.71
2018-01-08T04:48:34.788Z,98.74
2018-01-08T04:51:05.566Z,98.87
2018-01-08T04:53:36.328Z,98.79
2018-01-08T04:56:07.091Z,97.96
2018-01-08T04:58:37.828Z,97.59
2018-01-08T05:01:08.587Z,97.33
2018-01-08T05:03:39.324Z,97.42
2018-01-08T05:06:10.093Z,97.51
2018-01-08T05:08:40.853Z,97.53
2018-01-08T05:11:11.615Z,97.62
2018-01-08T05:13:42.340Z,97.76
2018-01-08T05:16:13.103Z,97.90
2018-01-08T05:18:43.848Z,97.75
2018-01-08T05:21:14.641Z,97.27
2018-01-08T05:23:45.376Z,97.05
2018-01-08T05:26:16.144Z,96.88
2018-01-08T05:28:46.893Z,96.80
2018-01-08T05:31:17.656Z,96.91
2018-01-08T05:33:48.404Z,96.93
2018-01-08T05:36:19.154Z,97.18
2018-01-08T05:38:49.898Z,97.14
2018-01-08T05:41:20.657Z,97.22
2018-01-08T05:43:51.413Z,97.41
2018-01-08T05:46:22.189Z,97.37
2018-01-08T05:48:52.962Z,97.41
2018-01-08T05:51:23.732Z,97.36
2018-01-08T05:53:54.480Z,97.58
2018-01-08T05:56:25.248Z,97.65
2018-01-08T05:58:56.021Z,97.52
2018-01-08T06:01:26.789Z,97.54
2018-01-08T06:03:57.564Z,97.59
2018-01-08T06:06:28.339Z,97.67
2018-01-08T06:08:59.097Z,97.61
2018-01-08T06:11:29.876Z,97.61
2018-01-08T06:14:00.710Z,97.75
2018-01-08T06:16:31.508Z,97.82
2018-01-08T06:19:02.301Z,97.90
2018-01-08T06:21:33.082Z,97.95
2018-01-08T06:24:03.849Z,97.99
2018-01-08T06:26:34.628Z,98.09
2018-01-08T06:29:06.441Z,97.99
2018-01-08T06:31:37.215Z,97.95
2018-01-08T06:34:07.985Z,98.02
2018-01-08T06:36:38.748Z,98.05
2018-01-08T06:39:09.493Z,98.00
2018-01-08T06:41:40.273Z,98.01
2018-01-08T06:44:11.030Z,97.97
2018-01-08T06:46:41.799Z,97.99
2018-01-08T06:49:12.548Z,97.85
2018-01-08T06:51:43.305Z,97.61
2018-01-08T06:54:14.048Z,97.61
2018-01-08T06:56:45.860Z,97.60
2018-01-08T06:59:16.595Z,97.56
2018-01-08T07:01:52.224Z,97.38
2018-01-08T07:04:29.852Z,97.09
2018-01-08T07:07:00.617Z,96.48
2018-01-08T07:09:31.360Z,95.86
2018-01-08T07:12:02.157Z,95.59
2018-01-08T07:14:32.904Z,95.63
2018-01-08T07:17:03.684Z,95.68
2018-01-08T07:19:34.430Z,95.61
2018-01-08T07:22:06.289Z,95.23
2018-01-08T07:24:37.066Z,95.10
2018-01-08T07:27:07.828Z,95.08
2018-01-08T07:29:38.592Z,95.02
2018-01-08T07:32:09.372Z,95.10
2018-01-08T07:34:40.168Z,95.13
2018-01-08T07:37:10.938Z,95.30
2018-01-08T07:39:41.847Z,95.73
2018-01-08T07:42:12.825Z,95.60
2018-01-08T07:44:43.613Z,95.45
2018-01-08T07:47:14.687Z,95.51
2018-01-08T07:49:46.558Z,95.52
2018-01-08T07:52:17.676Z,95.31
2018-01-08T07:54:48.878Z,94.97
2018-01-08T07:57:24.679Z,94.89
2018-01-08T07:59:55.686Z,94.51
2018-01-08T08:02:26.631Z,94.25
2018-01-08T08:04:57.862Z,94.36
2018-01-08T08:07:34.909Z,94.21
2018-01-08T08:10:06.024Z,94.29
2018-01-08T08:12:39.241Z,94.04
2018-01-08T08:15:13.426Z,93.89
2018-01-08T08:17:46.328Z,93.76
2018-01-08T08:20:17.151Z,93.75
2018-01-08T08:22:47.909Z,93.86
2018-01-08T08:25:18.645Z,93.80
2018-01-08T08:27:50.484Z,93.69
2018-01-08T08:30:21.229Z,93.91
2018-01-08T08:32:52.013Z,93.76
2018-01-08T08:35:22.861Z,93.36
2018-01-08T08:37:58.721Z,93.47
2018-01-08T08:40:29.523Z,93.41
2018-01-08T08:43:00.246Z,93.21
2018-01-08T08:45:31.004Z,93.24
2018-01-08T08:48:01.766Z,93.00
2018-01-08T08:50:32.534Z,92.20
2018-01-08T08:53:04.354Z,92.08
2018-01-08T08:55:35.140Z,91.93
2018-01-08T08:58:07.998Z,91.58
2018-01-08T09:00:38.833Z,91.26
2018-01-08T09:03:09.632Z,90.95
2018-01-08T09:05:45.969Z,91.00
2018-01-08T09:08:16.733Z,91.36
2018-01-08T09:10:47.476Z,91.15
2018-01-08T09:13:19.355Z,90.62
2018-01-08T09:15:50.102Z,90.58
2018-01-08T09:18:20.865Z,89.94
2018-01-08T09:20:51.610Z,89.53
2018-01-08T09:23:22.375Z,89.55
2018-01-08T09:25:54.216Z,89.42
2018-01-08T09:28:28.132Z,89.41
2018-01-08T09:30:59.916Z,88.47
2018-01-08T09:33:30.717Z,88.38
2018-01-08T09:36:01.453Z,88.91
2018-01-08T09:38:32.236Z,88.81
2018-01-08T09:41:02.993Z,88.61
2018-01-08T09:43:33.756Z,87.44
2018-01-08T09:46:06.536Z,87.17
2018-01-08T09:48:37.305Z,86.57
2018-01-08T09:51:08.051Z,87.17
2018-01-08T09:53:38.813Z,86.61
2018-01-08T09:56:09.576Z,85.71
2018-01-08T09:58:45.464Z,85.37
2018-01-08T10:01:17.433Z,86.10
2018-01-08T10:04:00.488Z,85.23
2018-01-08T10:06:43.752Z,85.52
2018-01-08T10:09:26.941Z,85.87
2018-01-08T10:12:14.446Z,86.57
2018-01-08T10:14:57.656Z,85.89
2018-01-08T10:17:40.798Z,85.34
2018-01-08T10:20:11.649Z,86.36
2018-01-08T10:22:42.517Z,86.29
2018-01-08T10:25:13.404Z,85.15
2018-01-08T10:27:44.265Z,85.00
2018-01-08T10:30:15.226Z,86.24
2018-01-08T10:32:46.115Z,84.92
2018-01-08T10:35:17.013Z,83.83
2018-01-08T10:37:47.887Z,83.46
2018-01-08T10:40:18.760Z,83.57
2018-01-08T10:42:55.684Z,83.39
2018-01-08T10:45:32.780Z,84.37
2018-01-08T10:48:09.872Z,83.49
2018-01-08T10:50:46.916Z,83.77
2018-01-08T10:53:20.853Z,84.33
2018-01-08T10:55:51.729Z,81.75
2018-01-08T10:58:22.590Z,82.65
2018-01-08T11:01:05.905Z,83.12
2018-01-08T11:03:42.877Z,82.67
2018-01-08T11:06:14.867Z,81.59
2018-01-08T11:08:45.675Z,81.86
2018-01-08T11:11:16.505Z,81.66
2018-01-08T11:13:47.380Z,81.96
2018-01-08T11:16:18.321Z,82.25
2018-01-08T11:18:56.785Z,80.74
2018-01-08T11:21:27.664Z,82.84
2018-01-08T11:23:58.500Z,81.59
2018-01-08T11:26:29.418Z,83.27
2018-01-08T11:29:00.285Z,82.07
2018-01-08T11:31:31.137Z,83.04
2018-01-08T11:34:02.016Z,81.46
2018-01-08T11:36:32.843Z,80.66
2018-01-08T11:39:03.741Z,78.33
2018-01-08T11:41:35.712Z,78.94
2018-01-08T11:44:06.521Z,79.09
2018-01-08T11:46:37.326Z,78.13
2018-01-08T11:49:12.092Z,78.17
2018-01-08T11:51:44.897Z,78.31
2018-01-08T11:54:20.944Z,80.10
2018-01-08T11:56:51.720Z,79.22
2018-01-08T11:59:29.802Z,77.46
2018-01-08T12:02:00.576Z,77.26
2018-01-08T12:04:33.392Z,78.37
2018-01-08T12:07:04.197Z,77.53
2018-01-08T12:09:35.272Z,79.13
2018-01-08T12:12:15.050Z,80.47
2018-01-08T12:14:46.876Z,79.62
2018-01-08T12:17:17.677Z,79.24
2018-01-08T12:19:48.450Z,80.53
2018-01-08T12:22:19.209Z,80.12
2018-01-08T12:24:50.021Z,80.36
2018-01-08T12:27:20.792Z,81.13
2018-01-08T12:29:51.547Z,80.61
2018-01-08T12:32:26.030Z,80.71
2018-01-08T12:34:56.800Z,80.10
2018-01-08T12:37:27.561Z,80.28
2018-01-08T12:40:02.097Z,79.90
2018-01-08T12:42:32.947Z,79.91
2018-01-08T12:45:04.791Z,79.57
2018-01-08T12:47:35.568Z,79.58
2018-01-08T12:50:06.363Z,79.15
2018-01-08T12:52:37.157Z,78.94
2018-01-08T12:55:07.912Z,79.18
2018-01-08T12:58:00.193Z,79.36
2018-01-08T13:00:31.002Z,79.26
2018-01-08T13:03:01.791Z,79.36
2018-01-08T13:05:39.652Z,79.93
2018-01-08T13:08:10.461Z,79.69
2018-01-08T13:10:41.303Z,79.75
2018-01-08T13:13:12.100Z,79.76
2018-01-08T13:15:43.156Z,79.55
2018-01-08T13:18:14.017Z,80.27
2018-01-08T13:20:44.777Z,80.18
2018-01-08T13:23:15.580Z,80.48
2018-01-08T13:25:58.376Z,80.60
2018-01-08T13:28:29.347Z,81.09
2018-01-08T13:31:00.147Z,81.09
2018-01-08T13:33:31.031Z,81.07
2018-01-08T13:36:01.933Z,81.74
2018-01-08T13:38:32.850Z,82.02
2018-01-08T13:41:03.651Z,82.16
2018-01-08T13:43:34.464Z,82.47
2018-01-08T13:46:05.268Z,82.65
2018-01-08T13:48:36.052Z,83.03
2018-01-08T13:51:06.819Z,82.67
2018-01-08T13:53:37.596Z,83.50
2018-01-08T13:56:08.372Z,82.91
2018-01-08T13:58:39.165Z,82.89
2018-01-08T14:01:09.956Z,82.65
2018-01-08T14:03:40.773Z,82.58
2018-01-08T14:06:30.452Z,82.50
2018-01-08T14:09:01.277Z,82.89
2018-01-08T14:11:32.204Z,82.83
2018-01-08T14:14:03.045Z,83.26
2018-01-08T14:16:33.813Z,83.30
2018-01-08T14:19:04.596Z,82.99
2018-01-08T14:21:35.367Z,83.49
2018-01-08T14:24:06.156Z,83.59
2018-01-08T14:29:54.388Z,84.68
2018-01-08T14:32:25.145Z,85.05
2018-01-08T14:34:57.992Z,84.95
2018-01-08T14:37:28.809Z,85.19
2018-01-08T14:40:00.682Z,86.00
2018-01-08T14:42:31.456Z,85.61
2018-01-08T14:45:16.220Z,85.70
2018-01-08T14:47:47.008Z,86.53
2018-01-08T14:50:17.823Z,86.32
2018-01-08T14:52:48.705Z,85.97
2018-01-08T14:55:19.485Z,86.21
2018-01-08T14:57:50.265Z,86.25
2018-01-08T15:00:21.049Z,86.75
2018-01-08T15:02:51.852Z,87.08
2018-01-08T15:05:22.735Z,87.13
2018-01-08T15:07:53.522Z,87.53
2018-01-08T15:10:24.308Z,87.26
2018-01-08T15:12:55.077Z,87.47
2018-01-08T15:15:25.868Z,87.96
2018-01-08T15:17:56.687Z,88.08
2018-01-08T15:20:40.505Z,87.68
2018-01-08T15:23:16.948Z,87.75
2018-01-08T15:26:02.068Z,88.21
2018-01-08T15:28:37.673Z,88.57
2018-01-08T15:31:08.437Z,88.19
2018-01-08T15:33:39.442Z,88.35
2018-01-08T15:36:10.421Z,88.98
2018-01-08T15:38:56.588Z,88.61
2018-01-08T15:41:30.788Z,88.92
2018-01-08T15:47:07.919Z,89.45
2018-01-08T15:49:38.713Z,89.30
2018-01-08T15:52:09.474Z,89.49
2018-01-08T15:54:40.268Z,89.94
2018-01-08T15:57:11.074Z,90.18
2018-01-08T15:59:41.880Z,90.59
2018-01-08T16:02:12.694Z,90.88
2018-01-08T16:04:52.052Z,90.91
2018-01-08T16:07:22.821Z,91.06
2018-01-08T16:09:53.602Z,90.76
2018-01-08T16:12:30.138Z,90.42
2018-01-08T16:15:00.906Z,90.48
2018-01-08T16:17:31.653Z,90.81
2018-01-08T16:20:10.779Z,90.56
2018-01-08T16:22:41.540Z,91.10
2018-01-08T16:25:12.300Z,91.32
2018-01-08T16:27:43.045Z,91.14
2018-01-08T16:30:13.829Z,91.15
2018-01-08T16:32:45.677Z,91.37
2018-01-08T16:35:16.476Z,91.75
2018-01-08T16:37:47.227Z,91.15
2018-01-08T16:40:29.440Z,91.12
2018-01-08T16:43:00.184Z,91.12
2018-01-08T16:45:32.967Z,90.89
2018-01-08T16:48:03.725Z,90.82
2018-01-08T16:50:34.496Z,90.61
2018-01-08T16:53:05.249Z,90.65
2018-01-08T16:55:36.049Z,90.73
2018-01-08T16:58:06.844Z,90.81
2018-01-08T17:00:37.617Z,91.00
2018-01-08T17:03:20.178Z,91.25
2018-01-08T17:05:50.962Z,91.76
2018-01-08T17:08:21.712Z,92.24
2018-01-08T17:10:57.596Z,92.59
2018-01-08T17:13:53.857Z,92.98
2018-01-08T17:16:33.586Z,93.31
2018-01-08T17:19:04.371Z,93.96
2018-01-08T17:21:35.138Z,94.25
2018-01-08T17:24:05.888Z,93.94
2018-01-08T17:27:01.008Z,93.62
2018-01-08T17:29:40.676Z,93.52
2018-01-08T17:32:11.437Z,93.82
2018-01-08T17:34:42.210Z,93.93
2018-01-08T17:37:12.966Z,93.88
2018-01-08T17:42:46.132Z,93.50
2018-01-08T17:45:16.940Z,93.10
2018-01-08T17:47:47.738Z,93.08
2018-01-08T17:50:18.526Z,92.99
2018-01-08T17:52:56.399Z,92.94
2018-01-08T17:55:27.148Z,93.00
2018-01-08T17:58:06.895Z,92.91
2018-01-08T18:00:37.664Z,93.25
2018-01-08T18:03:09.542Z,93.39
2018-01-08T18:05:40.342Z,93.42
2018-01-08T18:08:11.102Z,93.41
2018-01-08T18:10:41.864Z,93.77
2018-01-08T18:13:12.678Z,94.01
2018-01-08T18:15:43.446Z,94.19
2018-01-08T18:18:14.246Z,94.29
2018-01-08T18:20:45.007Z,94.29
2018-01-08T18:23:15.818Z,94.68
2018-01-08T18:25:46.586Z,94.78
2018-01-08T18:28:17.357Z,94.93
2018-01-08T18:30:48.268Z,95.32
2018-01-08T18:33:19.096Z,95.29
2018-01-08T18:35:49.988Z,95.40
2018-01-08T18:38:20.789Z,95.39
2018-01-08T18:40:51.616Z,95.49
2018-01-08T18:43:22.463Z,95.40
2018-01-08T18:46:20.127Z,95.31
2018-01-08T18:48:50.932Z,95.13
2018-01-08T18:51:21.704Z,94.99
2018-01-08T18:54:16.796Z,95.16
2018-01-08T18:56:47.581Z,95.57
2018-01-08T18:59:18.370Z,95.57
2018-01-08T19:01:49.148Z,95.44
2018-01-08T19:04:19.965Z,95.38
2018-01-08T19:06:51.820Z,95.24
2018-01-08T19:09:22.597Z,95.32
2018-01-08T19:11:53.348Z,95.39
2018-01-08T19:14:30.988Z,95.44
2018-01-08T19:17:01.898Z,95.77
2018-01-08T19:19:32.685Z,96.07
2018-01-08T19:22:03.467Z,96.23
2018-01-08T19:24:34.302Z,96.40
2018-01-08T19:27:05.121Z,96.38
2018-01-08T19:29:42.926Z,96.57
2018-01-08T19:32:13.716Z,96.57
2018-01-08T19:34:45.636Z,96.70
2018-01-08T19:37:16.377Z,96.83
2018-01-08T19:39:48.239Z,97.00
2018-01-08T19:42:23.763Z,96.98
2018-01-08T19:45:01.264Z,96.99
2018-01-08T19:47:32.013Z,96.99
2018-01-08T19:50:04.886Z,96.82
2018-01-08T19:52:35.702Z,96.60
2018-01-08T19:55:06.529Z,96.35
2018-01-08T19:57:37.322Z,96.19
2018-01-08T20:00:08.153Z,96.24
2018-01-08T20:02:39.941Z,96.09
2018-01-08T20:05:10.748Z,95.56
2018-01-08T20:07:41.560Z,95.40
2018-01-08T20:10:30.282Z,95.20
2018-01-08T20:13:01.082Z,94.94
2018-01-08T20:18:33.991Z,95.00
2018-01-08T20:21:04.800Z,94.88
2018-01-08T20:23:35.635Z,94.89
2018-01-08T20:26:26.352Z,94.69
2018-01-08T20:28:57.272Z,94.63
2018-01-08T20:31:29.380Z,94.52
2018-01-08T20:34:02.303Z,94.47
2018-01-08T20:36:33.084Z,94.65
2018-01-08T20:39:04.236Z,94.63
2018-01-08T20:41:36.120Z,94.68
2018-01-08T20:44:13.316Z,94.66
2018-01-08T20:46:46.152Z,94.49
2018-01-08T20:49:20.636Z,94.39
2018-01-08T20:51:53.541Z,94.47
2018-01-08T20:54:24.392Z,94.63
2018-01-08T20:57:01.159Z,94.63
2018-01-08T20:59:31.984Z,94.63
2018-01-08T21:02:02.799Z,94.67
2018-01-08T21:04:33.614Z,94.53
2018-01-08T21:07:04.396Z,94.45
2018-01-08T21:09:35.144Z,94.47
2018-01-08T21:12:06.980Z,94.72
2018-01-08T21:14:37.792Z,94.74
2018-01-08T21:17:15.417Z,94.54
2018-01-08T21:19:47.264Z,94.33
2018-01-08T21:22:18.069Z,94.36
2018-01-08T21:24:50.879Z,94.27
2018-01-08T21:27:21.805Z,94.16
2018-01-08T21:29:52.735Z,94.11
2018-01-08T21:32:23.620Z,94.21
2018-01-08T21:34:56.464Z,94.15
2018-01-08T21:37:27.335Z,94.25
2018-01-08T21:39:58.190Z,94.21
2018-01-08T21:42:32.271Z,94.03
2018-01-08T21:45:13.977Z,94.22
2018-01-08T21:47:44.785Z,94.15
2018-01-08T21:50:15.586Z,93.88
2018-01-08T21:52:47.508Z,93.83
2018-01-08T21:55:18.328Z,93.86
2018-01-08T21:57:49.187Z,94.10
2018-01-08T22:00:20.114Z,94.17
2018-01-08T22:02:50.939Z,94.29
2018-01-08T22:05:21.788Z,94.44
2018-01-08T22:07:52.591Z,94.52
2018-01-08T22:10:24.467Z,94.60
2018-01-08T22:12:55.279Z,94.67
2018-01-08T22:15:26.115Z,94.87
2018-01-08T22:17:59.041Z,94.96
2018-01-08T22:20:29.849Z,95.08
2018-01-08T22:23:03.071Z,95.25
2018-01-08T22:25:33.892Z,95.39
2018-01-08T22:28:04.781Z,95.72
2018-01-08T22:30:35.613Z,95.79
2018-01-08T22:33:06.448Z,95.67
2018-01-08T22:35:37.242Z,95.51
2018-01-08T22:38:09.121Z,95.29
2018-01-08T22:40:40.591Z,95.12
2018-01-08T22:43:11.428Z,95.01
2018-01-08T22:45:44.259Z,94.89
2018-01-08T22:48:15.063Z,94.45
2018-01-08T22:50:46.224Z,94.25
2018-01-08T22:56:12.948Z,94.61
2018-01-08T22:58:43.844Z,94.89
2018-01-08T23:01:15.716Z,94.78
2018-01-08T23:03:46.517Z,94.82
2018-01-08T23:06:17.337Z,94.89
2018-01-08T23:08:48.933Z,95.10
2018-01-08T23:11:19.763Z,95.14
2018-01-08T23:13:50.593Z,95.08
2018-01-08T23:16:21.446Z,95.01
2018-01-08T23:18:52.284Z,95.12
2018-01-08T23:21:23.164Z,95.16
2018-01-08T23:23:53.984Z,95.06
2018-01-08T23:26:24.784Z,95.28
2018-01-08T23:28:55.594Z,94.97
2018-01-08T23:31:26.438Z,94.81
2018-01-08T23:36:34.669Z,94.45
2018-01-08T23:39:05.436Z,94.47
2018-01-08T23:41:36.194Z,94.46
2018-01-08T23:44:07.018Z,94.39
2018-01-08T23:46:37.858Z,94.51
2018-01-08T23:49:08.646Z,94.68
2018-01-08T23:51:39.431Z,94.81
2018-01-08T23:54:21.462Z,95.25
2018-01-08T23:56:52.264Z,95.34
2018-01-08T23:59:23.025Z,95.31
